Pagrindinis puslapis
METAR-TAF:

METAR-TAF

Oro uostai :

Zonguldakas, Turkija

platuma: 41-27N, ilguma: 031-48E, Aukštis: 136 m

Dabartinis oras

Ataskaita buvo paskelbta 7 valandos ir 21 minutes, ne 13:50 UTC
Vėjas 4 kt iš Šiaurės
Temperatūra 10°C
Drėgmė 71%
Slėgis 1014 hPa
Matomumas 10 km arba daugiau
nėra debesų žemiau 1500 m ir nėra kamuolinių lietaus debesų

METAR: LTAS 101350Z 35004KT CAVOK 10/05 Q1014

Laikas: 00:11 (21:11 UTC)

Prognozė

Ataskaita buvo paskelbta 7 valandos ir 31 minutes, ne 13:40 UTC
Prognozė galioja nuo 10 metu 15 UTC su 10 metu 24 UTC
Vėjas 2 kt nuo kintamojo kryptimis
Matomumas 10 km arba daugiau
nėra debesų žemiau 1500 m ir nėra kamuolinių lietaus debesų

TAF: LTAS 101340Z 1015/1024 VRB02KT CAVOK

Orai ataskaitas ir orų prognozės (METAR, TAF).

turimą stotys yra geltonos ir raudonos taškus žemėlapyje.

Perkelti pele per norėdami pamatyti stoties vardą.

Tada spustelėkite, norėdami matyti oro stebėjimo ir prognozės.

Norėdami pakeisti žemėlapį: spustelėkite ant žalios mygtukų su juodo kryžiaus žemyn,; žalią mygtuką su brūkšneliu, jei norite nutolinti; arba žalių rodyklių gretimoms žemėlapius.


METAR-TAF: